Time;durP1;ratioP1;P1;durP2;ratioP2;P2;SDS_P1;SDS_P2;PMS_P1;PMS_P2;Temp;Humidity;BMP_temperature;BMP_pressure;BME280_temperature;BME280_humidity;BME280_pressure;Samples;Min_cycle;Max_cycle;Signal;HPM_P1;HPM_P2
2020/12/20 00:00:15;;;;;;;71.53;42.50;;;;;;;-1.52;86.08;99970.47;124811;1100;65158;-83
2020/12/20 00:02:56;;;;;;;67.35;41.05;;;;;;;-1.58;86.34;99964.38;124842;1100;65175;-83
2020/12/20 00:05:25;;;;;;;62.50;40.90;;;;;;;-1.62;86.25;99959.16;125313;1098;65153;-81
2020/12/20 00:07:52;;;;;;;61.03;39.37;;;;;;;-1.68;86.55;99967.02;124867;1100;65319;-81
2020/12/20 00:10:21;;;;;;;65.77;39.47;;;;;;;-1.71;86.30;99969.61;124824;1099;65159;-80
2020/12/20 00:12:47;;;;;;;63.83;40.10;;;;;;;-1.75;86.10;99973.12;124851;1100;65137;-81
2020/12/20 00:15:15;;;;;;;65.10;38.70;;;;;;;-1.77;85.99;99968.74;124756;1100;65144;-81
2020/12/20 00:17:46;;;;;;;68.43;39.73;;;;;;;-1.78;86.78;99961.79;124803;1100;65235;-81
2020/12/20 00:20:13;;;;;;;59.53;37.13;;;;;;;-1.79;86.85;99967.90;124757;1099;65134;-81
2020/12/20 00:22:41;;;;;;;67.45;39.50;;;;;;;-1.83;85.96;99955.70;125353;1099;65162;-81
2020/12/20 00:25:08;;;;;;;62.87;42.27;;;;;;;-1.85;86.08;99957.44;124777;1100;65226;-81
2020/12/20 00:27:34;;;;;;;73.50;45.15;;;;;;;-1.83;86.73;99955.70;125053;1099;65128;-81
2020/12/20 00:30:01;;;;;;;72.23;45.70;;;;;;;-1.77;86.99;99950.45;124804;1100;65242;-81
2020/12/20 00:32:27;;;;;;;70.50;45.95;;;;;;;-1.77;86.77;99955.67;125289;1100;65284;-81
2020/12/20 00:34:54;;;;;;;75.90;45.95;;;;;;;-1.76;86.45;99959.19;125293;1098;65188;-81
2020/12/20 00:37:21;;;;;;;72.00;45.50;;;;;;;-1.75;86.75;99960.05;124796;1100;65140;-81
2020/12/20 00:39:47;;;;;;;80.97;49.23;;;;;;;-1.75;86.82;99958.30;125315;1098;65242;-81
2020/12/20 00:42:14;;;;;;;72.63;43.63;;;;;;;-1.71;86.65;99962.66;124845;1100;65233;-81
2020/12/20 00:44:40;;;;;;;68.55;44.10;;;;;;;-1.71;87.01;99961.77;124850;1100;65357;-81
2020/12/20 00:47:07;;;;;;;76.40;45.07;;;;;;;-1.68;86.93;99956.56;124900;1100;65161;-81
2020/12/20 00:49:33;;;;;;;72.00;46.80;;;;;;;-1.69;86.33;99966.12;124870;1100;65153;-81
2020/12/20 00:52:03;;;;;;;70.43;43.63;;;;;;;-1.72;86.50;99968.74;124816;1100;65201;-81
2020/12/20 00:54:29;;;;;;;70.12;41.05;;;;;;;-1.78;86.66;99963.54;125317;1098;65179;-81
2020/12/20 00:56:56;;;;;;;63.43;41.17;;;;;;;-1.82;86.22;99967.02;125267;1098;65223;-81
2020/12/20 00:59:23;;;;;;;67.33;44.70;;;;;;;-1.82;87.00;99965.30;124864;1100;65156;-81
2020/12/20 01:01:50;;;;;;;65.40;43.17;;;;;;;-1.77;86.78;99973.11;124786;1100;65150;-81
2020/12/20 01:04:17;;;;;;;71.40;42.95;;;;;;;-1.80;86.63;99968.75;124854;1099;65216;-81
2020/12/20 01:06:43;;;;;;;74.07;42.93;;;;;;;-1.80;86.09;99971.36;124860;1100;65223;-82
2020/12/20 01:09:15;;;;;;;73.53;43.37;;;;;;;-1.78;86.50;99973.98;124854;1100;65234;-82
2020/12/20 01:11:43;;;;;;;74.50;46.77;;;;;;;-1.81;86.48;99972.25;125368;1098;65176;-82
2020/12/20 01:14:09;;;;;;;72.15;44.40;;;;;;;-1.86;86.14;99967.91;124840;1100;65159;-82
2020/12/20 01:16:36;;;;;;;71.73;44.40;;;;;;;-1.94;86.19;99959.20;125340;1100;65172;-83
2020/12/20 01:19:02;;;;;;;63.33;39.60;;;;;;;-2.01;86.32;99960.94;125268;1098;65262;-82
2020/12/20 01:21:29;;;;;;;77.93;45.13;;;;;;;-2.05;86.74;99960.08;124836;1100;65205;-82
2020/12/20 01:23:55;;;;;;;73.80;45.33;;;;;;;-2.04;86.89;99963.56;124895;1100;65166;-82
2020/12/20 01:26:23;;;;;;;76.80;45.13;;;;;;;-2.05;87.07;99967.05;124924;1098;65165;-82
2020/12/20 01:28:50;;;;;;;77.10;46.65;;;;;;;-2.08;86.56;99959.19;124888;1099;65203;-82
2020/12/20 01:31:16;;;;;;;85.65;48.75;;;;;;;-2.04;86.65;99963.56;124821;1098;65160;-82
2020/12/20 01:33:43;;;;;;;74.73;46.73;;;;;;;-2.05;87.10;99960.08;124795;1100;65172;-82
2020/12/20 01:36:11;;;;;;;76.75;48.35;;;;;;;-2.07;86.71;99956.59;124803;1100;65165;-82
2020/12/20 01:38:38;;;;;;;71.13;45.40;;;;;;;-2.11;87.01;99948.75;124826;1100;65115;-82
2020/12/20 01:41:06;;;;;;;86.67;48.57;;;;;;;-2.17;86.44;99948.77;124811;1100;65114;-82
2020/12/20 01:43:40;;;;;;;83.60;47.75;;;;;;;-2.18;86.94;99940.06;124804;1100;65205;-82
2020/12/20 01:46:15;;;;;;;82.73;49.37;;;;;;;-2.21;87.27;99940.94;125281;1098;65258;-82
2020/12/20 01:48:43;;;;;;;80.85;48.75;;;;;;;-2.16;87.21;99948.74;124820;1100;65153;-82
2020/12/20 01:51:09;;;;;;;77.60;46.70;;;;;;;-2.13;86.78;99948.77;124778;1100;65241;-82
2020/12/20 01:53:39;;;;;;;74.60;46.57;;;;;;;-2.11;87.39;99947.00;124770;1100;65163;-82
2020/12/20 01:56:05;;;;;;;74.33;44.33;;;;;;;-2.08;87.44;99952.25;124811;1100;65159;-82
2020/12/20 01:58:36;;;;;;;69.00;42.90;;;;;;;-2.08;87.30;99949.64;124847;1099;65214;-82
2020/12/20 02:01:08;;;;;;;60.90;39.65;;;;;;;-2.10;87.09;99950.52;124803;1100;65127;-82
2020/12/20 02:03:35;;;;;;;66.93;41.33;;;;;;;-2.11;87.23;99953.98;124791;1100;65200;-81
2020/12/20 02:06:04;;;;;;;60.00;36.93;;;;;;;-2.13;86.85;99953.99;124820;1100;65130;-82
2020/12/20 02:08:32;;;;;;;67.08;40.17;;;;;;;-2.17;87.45;99960.07;124844;1100;65110;-81
2020/12/20 02:11:03;;;;;;;67.10;40.10;;;;;;;-2.13;87.14;99958.32;124818;1099;65300;-83
2020/12/20 02:13:29;;;;;;;67.30;41.63;;;;;;;-2.07;87.12;99953.12;125297;1098;65179;-82
2020/12/20 02:15:56;;;;;;;66.23;42.77;;;;;;;-2.04;87.56;99963.56;124812;1100;65178;-81
2020/12/20 02:18:22;;;;;;;68.63;43.33;;;;;;;-2.00;87.49;99968.78;124800;1100;65236;-81
2020/12/20 02:20:49;;;;;;;67.43;41.20;;;;;;;-1.96;86.75;99964.42;124777;1100;65472;-81
2020/12/20 02:23:15;;;;;;;61.73;36.53;;;;;;;-1.88;87.21;99957.44;124793;1100;65140;-81
2020/12/20 02:25:42;;;;;;;67.33;38.57;;;;;;;-1.85;86.87;99965.27;124806;1100;65233;-81
2020/12/20 02:28:09;;;;;;;64.40;39.50;;;;;;;-1.82;87.47;99964.40;125229;1098;65143;-81
2020/12/20 02:30:35;;;;;;;62.47;38.67;;;;;;;-1.79;87.18;99962.67;124899;1100;65210;-81
2020/12/20 02:33:02;;;;;;;57.97;36.60;;;;;;;-1.75;86.80;99966.14;124872;1100;65259;-81
2020/12/20 02:35:28;;;;;;;61.43;38.67;;;;;;;-1.77;86.97;99960.91;124791;1100;65266;-82
2020/12/20 02:37:54;;;;;;;61.77;39.50;;;;;;;-1.79;87.30;99956.55;125300;1098;65156;-81
2020/12/20 02:40:21;;;;;;;55.40;35.17;;;;;;;-1.82;87.14;99957.45;124890;1100;65357;-81
2020/12/20 02:42:47;;;;;;;64.60;38.47;;;;;;;-1.84;86.71;99958.33;124811;1100;65153;-81
2020/12/20 02:45:13;;;;;;;66.97;38.90;;;;;;;-1.83;86.62;99954.83;125330;1098;65224;-81
2020/12/20 02:47:40;;;;;;;63.87;37.83;;;;;;;-1.83;87.34;99958.31;125289;1098;65250;-81
2020/12/20 02:50:06;;;;;;;66.57;40.40;;;;;;;-1.81;86.85;99951.34;124823;1100;65109;-81
2020/12/20 02:52:33;;;;;;;73.43;40.50;;;;;;;-1.79;86.62;99960.06;124870;1100;65207;-82
2020/12/20 02:54:59;;;;;;;69.83;42.60;;;;;;;-1.76;87.43;99946.13;125233;1099;65153;-81
2020/12/20 02:57:25;;;;;;;67.07;41.47;;;;;;;-1.73;86.76;99947.86;124840;1100;65162;-81
2020/12/20 02:59:52;;;;;;;69.33;40.73;;;;;;;-1.72;86.87;99942.61;125305;1098;65307;-81
2020/12/20 03:02:18;;;;;;;66.73;40.63;;;;;;;-1.67;86.66;99947.84;124903;1100;65137;-82
2020/12/20 03:04:45;;;;;;;68.15;39.25;;;;;;;-1.68;87.13;99941.75;124867;1100;65242;-82
2020/12/20 03:07:11;;;;;;;60.05;38.53;;;;;;;-1.68;86.78;99946.11;125004;1100;65298;-82
2020/12/20 03:09:37;;;;;;;69.43;39.60;;;;;;;-1.66;87.10;99949.56;124888;1100;65297;-82
2020/12/20 03:12:04;;;;;;;67.47;42.07;;;;;;;-1.65;86.81;99940.87;124753;1100;65533;-82
2020/12/20 03:14:30;;;;;;;69.30;43.27;;;;;;;-1.65;86.89;99949.58;125335;1100;65469;-82
2020/12/20 03:16:57;;;;;;;68.17;43.03;;;;;;;-1.65;86.65;99938.26;124897;1100;65265;-82
2020/12/20 03:19:23;;;;;;;73.20;43.85;;;;;;;-1.64;87.26;99943.46;124823;1100;65417;-82
2020/12/20 03:21:49;;;;;;;68.90;41.13;;;;;;;-1.62;87.32;99943.47;125298;1098;65274;-82
2020/12/20 03:24:16;;;;;;;75.17;46.03;;;;;;;-1.60;87.50;99945.21;125284;1099;65150;-82
2020/12/20 03:26:42;;;;;;;68.80;43.33;;;;;;;-1.58;87.37;99946.08;124861;1100;65159;-82
2020/12/20 03:29:09;;;;;;;74.57;43.03;;;;;;;-1.56;86.78;99946.06;125258;1098;65210;-82
2020/12/20 03:31:35;;;;;;;66.43;42.23;;;;;;;-1.55;86.58;99948.69;124798;1100;65152;-82
2020/12/20 03:34:03;;;;;;;70.83;41.27;;;;;;;-1.54;87.31;99952.16;125252;1098;65325;-82
2020/12/20 03:36:29;;;;;;;75.55;45.10;;;;;;;-1.51;87.16;99954.77;125332;1098;65108;-82
2020/12/20 03:38:56;;;;;;;81.10;47.17;;;;;;;-1.46;86.74;99958.23;125242;1098;65150;-82
2020/12/20 03:41:22;;;;;;;72.03;42.50;;;;;;;-1.42;86.66;99961.70;125289;1098;65165;-82
2020/12/20 03:43:49;;;;;;;70.83;44.00;;;;;;;-1.42;86.57;99952.14;125281;1098;65218;-82
2020/12/20 03:46:15;;;;;;;74.73;44.37;;;;;;;-1.42;87.00;99952.14;125308;1098;65162;-82
2020/12/20 03:48:41;;;;;;;74.43;45.07;;;;;;;-1.39;86.91;99948.64;124806;1100;65172;-81
2020/12/20 03:51:08;;;;;;;75.27;43.73;;;;;;;-1.40;86.63;99952.11;124863;1098;65213;-82
2020/12/20 03:53:35;;;;;;;66.77;41.87;;;;;;;-1.37;86.95;99946.88;124785;1100;65143;-81
2020/12/20 03:56:01;;;;;;;75.13;45.67;;;;;;;-1.40;87.18;99962.57;125316;1098;65141;-81
2020/12/20 03:58:27;;;;;;;79.77;49.20;;;;;;;-1.38;87.31;99959.08;125289;1098;65127;-82
2020/12/20 04:00:54;;;;;;;80.60;47.30;;;;;;;-1.36;87.24;99961.70;125372;1098;65175;-81
2020/12/20 04:03:20;;;;;;;145.00;93.45;;;;;;;-1.36;87.25;99959.09;125273;1098;65211;-81
2020/12/20 04:05:46;;;;;;;132.40;94.63;;;;;;;-1.34;87.10;99959.96;125318;1100;65166;-81
2020/12/20 04:08:13;;;;;;;132.77;93.10;;;;;;;-1.31;87.28;99957.33;125321;1098;65162;-81
2020/12/20 04:10:39;;;;;;;441.75;301.35;;;;;;;-1.29;86.82;99957.30;125256;1098;65268;-81
2020/12/20 04:13:06;;;;;;;180.43;118.00;;;;;;;-1.25;86.72;99961.66;125283;1099;65144;-81
2020/12/20 04:15:35;;;;;;;125.50;81.80;;;;;;;-1.26;87.17;99965.13;125392;1098;65194;-81
2020/12/20 04:18:01;;;;;;;113.83;77.93;;;;;;;-1.29;86.85;99952.97;124873;1098;65188;-82
2020/12/20 04:20:27;;;;;;;100.47;65.83;;;;;;;-1.33;86.67;99952.09;124870;1098;65182;-81
2020/12/20 04:22:54;;;;;;;84.73;49.80;;;;;;;-1.33;86.84;99951.23;125274;1098;65642;-82
2020/12/20 04:25:20;;;;;;;82.23;50.43;;;;;;;-1.33;87.37;99951.23;124804;1100;65256;-82
2020/12/20 04:27:48;;;;;;;82.30;49.67;;;;;;;-1.33;86.84;99953.84;125280;1098;65266;-82
2020/12/20 04:30:15;;;;;;;80.40;47.90;;;;;;;-1.31;87.51;99946.88;125265;1098;65050;-82
2020/12/20 04:32:41;;;;;;;84.77;48.83;;;;;;;-1.29;86.62;99949.46;124843;1100;65240;-81
2020/12/20 04:35:10;;;;;;;80.27;46.93;;;;;;;-1.31;87.35;99946.01;125296;1098;65211;-81
2020/12/20 04:37:37;;;;;;;90.90;49.00;;;;;;;-1.35;87.34;99953.83;125296;1099;65176;-82
2020/12/20 04:40:05;;;;;;;82.57;48.23;;;;;;;-1.36;87.45;99938.17;124852;1100;65222;-81
2020/12/20 04:42:31;;;;;;;83.23;46.90;;;;;;;-1.35;86.80;99940.77;124923;1099;65156;-81
2020/12/20 04:44:58;;;;;;;83.40;46.53;;;;;;;-1.33;86.82;99944.25;124892;1100;65185;-81
2020/12/20 04:47:25;;;;;;;81.17;49.87;;;;;;;-1.32;87.28;99947.73;124815;1100;65522;-81
2020/12/20 04:49:52;;;;;;;85.23;48.40;;;;;;;-1.31;87.21;99949.48;124890;1100;65165;-81
2020/12/20 04:52:19;;;;;;;83.67;48.30;;;;;;;-1.34;87.10;99949.50;125343;1098;65187;-81
2020/12/20 04:54:46;;;;;;;86.93;48.77;;;;;;;-1.36;86.90;99949.49;125268;1098;65150;-81
2020/12/20 04:57:16;;;;;;;84.25;49.35;;;;;;;-1.34;87.73;99950.37;125276;1098;65249;-81
2020/12/20 04:59:43;;;;;;;82.80;46.35;;;;;;;-1.31;87.43;99946.88;124898;1100;65176;-81
2020/12/20 05:02:10;;;;;;;89.97;52.43;;;;;;;-1.35;87.24;99943.38;124872;1100;65160;-81
2020/12/20 05:04:37;;;;;;;80.60;48.27;;;;;;;-1.33;87.21;99951.23;124950;1098;65179;-82
2020/12/20 05:07:04;;;;;;;91.17;52.07;;;;;;;-1.30;87.45;99958.20;125338;1098;65159;-82
2020/12/20 05:09:31;;;;;;;86.55;49.45;;;;;;;-1.25;87.84;99956.44;125392;1098;65313;-83
2020/12/20 05:11:58;;;;;;;91.00;51.43;;;;;;;-1.23;87.77;99955.55;124952;1099;65230;-83
2020/12/20 05:14:32;;;;;;;91.35;49.85;;;;;;;-1.24;87.71;99956.41;125267;1098;65771;-83
2020/12/20 05:16:59;;;;;;;88.50;50.70;;;;;;;-1.23;87.81;99959.92;124817;1100;65133;-82
2020/12/20 05:19:32;;;;;;;80.20;46.45;;;;;;;-1.18;87.63;99948.56;125295;1098;65672;-82
2020/12/20 05:22:16;;;;;;;94.27;51.43;;;;;;;-1.15;87.26;99940.70;124855;1100;65411;-82
2020/12/20 05:24:45;;;;;;;82.10;48.50;;;;;;;-1.09;87.82;99949.39;125341;1098;65182;-82
2020/12/20 05:27:20;;;;;;;88.37;51.17;;;;;;;-1.10;87.11;99940.69;125322;1098;65075;-82
2020/12/20 05:29:50;;;;;;;85.23;56.17;;;;;;;-1.16;87.43;99938.97;125313;1098;65140;-82
2020/12/20 05:32:30;;;;;;;;;;;;;;;-1.12;87.73;99945.05;125358;1098;65150;-82
2020/12/20 05:34:57;;;;;;;;;;;;;;;-1.12;87.84;99945.05;124871;1099;65176;-82
2020/12/20 05:37:29;;;;;;;91.20;49.97;;;;;;;-1.13;87.47;99959.02;124794;1100;65134;-82
2020/12/20 05:39:56;;;;;;;92.37;52.63;;;;;;;-1.11;87.88;99960.75;125313;1098;65127;-82
2020/12/20 05:42:24;;;;;;;88.83;51.10;;;;;;;-1.12;87.65;99951.14;125281;1099;65188;-82
2020/12/20 05:45:06;;;;;;;91.63;51.07;;;;;;;-1.10;87.85;99961.61;125257;1098;65608;-83
2020/12/20 05:47:33;;;;;;;96.80;52.60;;;;;;;-1.03;87.62;99960.69;124860;1100;65229;-82
2020/12/20 05:49:59;;;;;;;101.50;52.20;;;;;;;-0.98;87.76;99956.30;124764;1100;65147;-82
2020/12/20 05:52:26;;;;;;;98.40;52.90;;;;;;;-0.91;87.73;99959.78;124757;1100;65162;-82
2020/12/20 05:54:52;;;;;;;93.27;53.97;;;;;;;-0.90;87.69;99964.98;125318;1099;65162;-82
2020/12/20 05:57:21;;;;;;;90.03;51.17;;;;;;;-0.89;87.50;99968.50;125312;1098;65114;-82
2020/12/20 05:59:50;;;;;;;91.13;52.47;;;;;;;-0.89;88.00;99973.73;125299;1098;65153;-82
2020/12/20 06:02:18;;;;;;;91.00;51.30;;;;;;;-0.89;87.87;99971.11;125328;1098;65137;-82
2020/12/20 06:04:45;;;;;;;84.10;47.97;;;;;;;-0.90;87.88;99972.84;124945;1100;65179;-81
2020/12/20 06:07:13;;;;;;;91.67;50.13;;;;;;;-0.85;88.16;99977.19;125370;1098;65150;-81
2020/12/20 06:09:59;;;;;;;86.70;49.10;;;;;;;-0.84;87.49;99974.58;125332;1098;65166;-82
2020/12/20 06:12:29;;;;;;;89.50;48.47;;;;;;;-0.81;87.68;99971.94;125272;1098;65159;-81
2020/12/20 06:14:58;;;;;;;86.85;45.20;;;;;;;-0.79;87.89;99972.81;124791;1100;65242;-81
2020/12/20 06:17:26;;;;;;;86.87;47.20;;;;;;;-0.77;87.73;99976.27;124915;1100;65178;-81
2020/12/20 06:20:05;;;;;;;93.83;50.73;;;;;;;-0.73;87.98;99970.15;125276;1098;65176;-81
2020/12/20 06:22:36;;;;;;;99.30;49.83;;;;;;;-0.71;87.37;99984.11;125300;1098;65141;-81
2020/12/20 06:25:04;;;;;;;;;;;;;;;-0.72;87.35;99974.49;125304;1098;65147;-81
2020/12/20 06:27:33;;;;;;;83.00;47.00;;;;;;;-0.70;87.60;99974.50;124854;1101;65187;-81
2020/12/20 06:30:02;;;;;;;95.33;49.57;;;;;;;-0.75;87.92;99977.13;124846;1101;65226;-81
2020/12/20 06:32:43;;;;;;;90.07;52.67;;;;;;;-0.72;88.11;99973.62;124830;1101;65337;-81
2020/12/20 06:35:24;;;;;;;86.90;49.07;;;;;;;-0.72;87.61;99974.49;124787;1101;65163;-81
2020/12/20 06:37:50;;;;;;;82.30;46.90;;;;;;;-0.74;88.00;99976.27;124756;1101;65246;-82
2020/12/20 06:40:41;;;;;;;78.50;44.60;;;;;;;-0.74;88.34;99984.13;124736;1101;65143;-81
2020/12/20 06:43:09;;;;;;;86.73;45.60;;;;;;;-0.74;87.96;99978.89;124753;1101;65092;-81
2020/12/20 06:45:45;;;;;;;94.43;51.60;;;;;;;-0.70;87.99;99971.88;124893;1100;65165;-81
2020/12/20 06:48:13;;;;;;;77.73;43.73;;;;;;;-0.70;87.60;99977.12;124826;1100;65563;-82
2020/12/20 06:50:49;;;;;;;77.13;46.23;;;;;;;-0.69;87.67;99987.56;124755;1101;65089;-81
2020/12/20 06:53:18;;;;;;;84.10;48.87;;;;;;;-0.66;88.04;99994.52;124790;1101;65143;-81
2020/12/20 06:55:46;;;;;;;82.35;47.40;;;;;;;-0.61;87.91;99991.89;124860;1101;65184;-81
2020/12/20 06:58:21;;;;;;;83.77;47.27;;;;;;;-0.60;88.28;99993.66;124821;1101;65194;-81
2020/12/20 07:00:55;;;;;;;88.23;47.63;;;;;;;-0.61;88.10;99999.75;124799;1101;65143;-82
2020/12/20 07:03:24;;;;;;;82.63;45.43;;;;;;;-0.63;87.51;100002.39;124833;1101;65246;-82
2020/12/20 07:05:52;;;;;;;85.40;47.95;;;;;;;-0.62;87.95;100003.25;124783;1101;65521;-83
2020/12/20 07:08:32;;;;;;;80.30;45.20;;;;;;;-0.59;87.65;100003.23;124802;1101;65607;-82
2020/12/20 07:11:01;;;;;;;77.87;45.75;;;;;;;-0.59;87.92;99991.00;124794;1101;65143;-83
2020/12/20 07:13:38;;;;;;;89.50;47.93;;;;;;;-0.59;88.17;99996.24;124819;1101;65208;-82
2020/12/20 07:16:19;;;;;;;80.37;48.73;;;;;;;-0.58;87.83;99994.48;124802;1101;65230;-82
2020/12/20 07:19:02;;;;;;;79.60;44.43;;;;;;;-0.58;87.54;99991.87;124773;1100;65249;-82
2020/12/20 07:21:28;;;;;;;74.45;41.95;;;;;;;-0.57;87.80;99993.63;124800;1101;65233;-82
2020/12/20 07:24:19;;;;;;;76.43;43.87;;;;;;;-0.55;88.08;99991.88;124829;1101;65137;-82
2020/12/20 07:26:48;;;;;;;72.57;43.03;;;;;;;-0.58;87.61;99999.72;124762;1100;65162;-82
2020/12/20 07:29:15;;;;;;;76.40;46.00;;;;;;;-0.60;87.74;99989.28;124849;1101;65157;-82
2020/12/20 07:31:42;;;;;;;81.05;44.35;;;;;;;-0.59;88.10;99993.63;124766;1101;65246;-82
2020/12/20 07:34:09;;;;;;;73.10;43.17;;;;;;;-0.57;88.13;99991.02;124842;1100;65131;-82
2020/12/20 07:36:38;;;;;;;76.50;44.70;;;;;;;-0.54;88.02;99997.09;124805;1100;65150;-82
2020/12/20 07:39:06;;;;;;;77.40;45.45;;;;;;;-0.55;87.21;99990.12;124815;1100;65157;-82
2020/12/20 07:41:34;;;;;;;86.93;48.13;;;;;;;-0.54;87.28;99997.09;124774;1101;65306;-82
2020/12/20 07:44:04;;;;;;;83.60;48.20;;;;;;;-0.56;87.92;99984.88;124828;1100;65155;-82
2020/12/20 07:46:31;;;;;;;82.30;47.93;;;;;;;-0.54;87.29;99993.61;124834;1101;65165;-82
2020/12/20 07:49:03;;;;;;;68.77;40.13;;;;;;;-0.52;87.92;99990.10;124836;1100;65176;-82
2020/12/20 07:51:30;;;;;;;68.90;39.23;;;;;;;-0.52;87.06;99986.62;124835;1101;65259;-82
2020/12/20 07:53:58;;;;;;;67.63;41.10;;;;;;;-0.53;87.58;99996.20;124743;1101;65284;-82
2020/12/20 07:56:32;;;;;;;73.53;43.80;;;;;;;-0.54;87.06;99993.61;124846;1101;65165;-82
2020/12/20 07:59:02;;;;;;;65.97;39.40;;;;;;;-0.53;87.23;99988.34;124788;1101;65159;-83
2020/12/20 08:01:28;;;;;;;65.27;36.60;;;;;;;-0.57;86.95;99993.63;124819;1101;65194;-82
2020/12/20 08:04:14;;;;;;;55.40;35.00;;;;;;;-0.62;86.68;100001.50;124789;1101;65172;-83
2020/12/20 08:06:59;;;;;;;58.20;34.97;;;;;;;-0.69;86.97;100005.02;124843;1101;65201;-82
2020/12/20 08:09:26;;;;;;;52.33;34.10;;;;;;;-0.67;87.33;100000.66;124807;1101;65136;-83
2020/12/20 08:11:54;;;;;;;48.57;31.33;;;;;;;-0.68;87.04;100002.41;124878;1101;65194;-81
2020/12/20 08:14:22;;;;;;;51.90;31.47;;;;;;;-0.72;86.73;100000.67;124772;1101;65266;-81
2020/12/20 08:16:51;;;;;;;53.87;34.57;;;;;;;-0.77;86.57;100005.05;124767;1101;65136;-82
2020/12/20 08:19:29;;;;;;;51.70;33.00;;;;;;;-0.82;87.18;100011.19;124832;1101;65307;-82
2020/12/20 08:22:13;;;;;;;52.97;33.63;;;;;;;-0.81;86.36;100008.58;124778;1100;65171;-82
2020/12/20 08:24:43;;;;;;;47.83;30.83;;;;;;;-0.80;86.53;100001.59;124809;1101;65166;-82
2020/12/20 08:27:21;;;;;;;52.17;31.13;;;;;;;-0.72;86.69;100007.66;124975;1098;65114;-82
2020/12/20 08:29:53;;;;;;;55.30;34.43;;;;;;;-0.66;86.60;100012.84;125251;1098;65197;-82
2020/12/20 08:32:26;;;;;;;55.63;35.27;;;;;;;-0.62;87.21;100003.25;124842;1100;65182;-82
2020/12/20 08:34:52;;;;;;;54.27;33.70;;;;;;;-0.61;86.75;100008.46;125310;1099;65160;-82
2020/12/20 08:37:22;;;;;;;51.87;34.90;;;;;;;-0.62;86.55;100011.11;125287;1099;65156;-82
2020/12/20 08:39:49;;;;;;;58.33;37.35;;;;;;;-0.56;86.81;100013.69;124910;1100;65088;-82
2020/12/20 08:42:19;;;;;;;58.97;37.00;;;;;;;-0.51;86.37;100010.16;124850;1100;65252;-82
2020/12/20 08:44:49;;;;;;;53.70;34.20;;;;;;;-0.40;86.55;100006.61;124846;1099;65230;-82
2020/12/20 08:47:16;;;;;;;;;;;;;;;-0.27;87.11;100018.74;125418;1098;65153;-82
2020/12/20 08:49:57;;;;;;;61.43;37.03;;;;;;;-0.20;86.23;100014.34;124828;1098;65249;-82
2020/12/20 08:52:29;;;;;;;61.50;36.67;;;;;;;-0.15;86.58;100010.81;124889;1100;65079;-82
2020/12/20 08:54:58;;;;;;;57.80;36.50;;;;;;;-0.05;86.30;100014.25;125282;1099;65583;-82
2020/12/20 08:57:31;;;;;;;60.70;38.17;;;;;;;-0.07;85.83;100018.62;124898;1100;65278;-82
2020/12/20 09:00:13;;;;;;;57.53;37.57;;;;;;;0.03;86.35;100019.40;124886;1098;65162;-82
2020/12/20 09:02:41;;;;;;;54.00;37.30;;;;;;;0.09;85.41;100029.86;125333;1098;65587;-83
2020/12/20 09:05:13;;;;;;;57.90;36.23;;;;;;;0.12;85.99;100027.20;125277;1098;65118;-82
2020/12/20 09:07:44;;;;;;;59.80;38.30;;;;;;;0.14;85.82;100026.31;124945;1098;65133;-86
2020/12/20 09:10:19;;;;;;;57.73;36.20;;;;;;;0.17;85.82;100021.04;125489;1098;65309;-86
2020/12/20 09:12:54;;;;;;;52.93;34.47;;;;;;;0.24;85.32;100016.63;125291;1098;65086;-83
2020/12/20 09:15:30;;;;;;;56.20;35.55;;;;;;;0.38;86.12;100019.98;124885;1100;65601;-82
2020/12/20 09:18:12;;;;;;;62.43;38.07;;;;;;;0.51;85.37;100012.88;124937;1100;65160;-80
2020/12/20 09:20:42;;;;;;;56.40;35.60;;;;;;;0.60;85.17;100015.39;124966;1098;65143;-80
2020/12/20 09:23:21;;;;;;;61.17;38.73;;;;;;;0.63;85.20;100018.02;124949;1100;65140;-80
2020/12/20 09:25:50;;;;;;;53.98;33.55;;;;;;;0.65;85.01;100017.98;124902;1100;65214;-83
2020/12/20 09:28:24;;;;;;;49.87;33.87;;;;;;;0.64;84.72;100013.63;124963;1100;65188;-84
2020/12/20 09:30:53;;;;;;;56.17;36.97;;;;;;;0.64;84.31;100024.98;124951;1099;65149;-89
2020/12/20 09:33:31;;;;;;;54.10;35.80;;;;;;;0.63;84.89;100023.26;124901;1101;65185;-78
2020/12/20 09:36:06;;;;;;;65.73;35.90;;;;;;;0.62;84.79;100025.88;125009;1101;65302;-93
2020/12/20 09:38:40;;;;;;;61.43;37.57;;;;;;;0.64;85.07;100014.49;124970;1101;65232;-87
2020/12/20 09:41:10;;;;;;;57.13;35.90;;;;;;;0.75;85.03;100030.12;124814;1101;65091;-83
2020/12/20 09:43:37;;;;;;;;;;;;;;;0.79;84.62;100016.09;125064;1099;65134;-85
2020/12/20 09:46:04;;;;;;;61.10;37.00;;;;;;;0.84;85.20;100014.30;124904;1101;65175;-83
2020/12/20 09:48:31;;;;;;;56.53;37.13;;;;;;;0.86;85.08;100012.50;124855;1101;65153;-85
2020/12/20 09:50:58;;;;;;;66.00;39.83;;;;;;;0.95;85.05;100015.90;124900;1101;65537;-85
2020/12/20 09:53:24;;;;;;;70.97;40.00;;;;;;;1.01;84.64;100013.23;124915;1101;65142;-85
2020/12/20 09:55:51;;;;;;;68.80;40.20;;;;;;;1.02;84.98;100013.19;125027;1101;65588;-83
2020/12/20 09:58:18;;;;;;;63.23;37.90;;;;;;;1.04;84.66;100000.92;124934;1101;65156;-84
2020/12/20 10:00:45;;;;;;;71.97;40.30;;;;;;;1.15;84.60;100005.17;124912;1101;65269;-87
2020/12/20 10:03:12;;;;;;;59.70;38.95;;;;;;;1.14;83.86;100012.19;124960;1101;65602;-88
2020/12/20 10:05:46;;;;;;;69.10;41.73;;;;;;;1.13;84.41;100004.32;124892;1098;65259;-86
2020/12/20 10:08:15;;;;;;;81.03;44.07;;;;;;;1.16;83.97;100005.17;125050;1101;65162;-89
2020/12/20 10:10:41;;;;;;;80.67;50.10;;;;;;;1.17;84.50;100006.90;124862;1101;65175;-89
2020/12/20 10:13:08;;;;;;;89.53;61.53;;;;;;;1.10;84.32;100007.84;124923;1101;65360;-91
2020/12/20 10:15:34;;;;;;;80.87;45.43;;;;;;;1.10;84.10;100006.09;125134;1102;65201;-86
2020/12/20 10:18:02;;;;;;;69.70;44.23;;;;;;;1.13;84.11;99997.30;125087;1101;65201;-83
2020/12/20 10:20:31;;;;;;;78.43;44.53;;;;;;;1.25;84.36;100009.43;124897;1101;65108;-82
2020/12/20 10:22:58;;;;;;;83.60;47.17;;;;;;;1.30;84.35;100005.84;124827;1102;65178;-82
2020/12/20 10:25:25;;;;;;;83.10;44.07;;;;;;;1.27;84.13;100005.89;124771;1101;66536;-82
2020/12/20 10:27:55;;;;;;;83.53;46.20;;;;;;;1.22;84.59;100004.22;124764;1101;65179;-83
2020/12/20 10:30:23;;;;;;;93.90;65.03;;;;;;;1.18;83.96;100005.99;124794;1101;65258;-82
2020/12/20 10:32:51;;;;;;;75.23;44.23;;;;;;;1.20;84.47;100001.60;124761;1101;65160;-83
2020/12/20 10:35:18;;;;;;;78.53;45.23;;;;;;;1.22;83.80;99997.20;124832;1101;65105;-82
2020/12/20 10:37:46;;;;;;;80.43;46.23;;;;;;;1.25;84.49;99994.53;124818;1101;65178;-82
2020/12/20 10:40:13;;;;;;;89.95;50.05;;;;;;;1.30;83.85;99994.48;124811;1101;65114;-83
2020/12/20 10:42:39;;;;;;;93.50;53.07;;;;;;;1.34;84.32;99990.91;124762;1101;65156;-82
2020/12/20 10:45:05;;;;;;;92.13;49.53;;;;;;;1.43;84.32;99989.94;124869;1101;65118;-82
2020/12/20 10:47:32;;;;;;;90.45;52.13;;;;;;;1.42;84.04;100003.94;124879;1101;65157;-82
2020/12/20 10:49:58;;;;;;;91.30;51.27;;;;;;;1.42;84.17;100002.20;124812;1101;65294;-82
2020/12/20 10:52:27;;;;;;;87.85;48.10;;;;;;;1.49;84.25;100002.98;124793;1101;65204;-83
2020/12/20 10:54:54;;;;;;;88.70;49.00;;;;;;;1.47;83.78;99995.11;124785;1101;65243;-83
2020/12/20 10:57:21;;;;;;;96.47;52.07;;;;;;;1.52;84.05;100001.16;124771;1102;65086;-83
2020/12/20 10:59:47;;;;;;;93.00;58.43;;;;;;;1.60;84.23;99995.80;124778;1101;65157;-82
2020/12/20 11:02:13;;;;;;;97.60;55.17;;;;;;;1.67;84.47;99992.20;124819;1101;65342;-83
2020/12/20 11:04:40;;;;;;;103.77;62.70;;;;;;;1.69;84.25;99997.45;124769;1101;65533;-82
2020/12/20 11:07:06;;;;;;;108.30;60.10;;;;;;;1.66;84.43;99992.22;124857;1101;65239;-83
2020/12/20 11:09:33;;;;;;;115.70;65.93;;;;;;;1.68;84.00;99993.07;124875;1101;65178;-83
2020/12/20 11:11:59;;;;;;;129.67;73.93;;;;;;;1.65;84.31;99996.61;124833;1101;65195;-83
2020/12/20 11:14:26;;;;;;;107.47;60.20;;;;;;;1.67;84.02;99989.58;124774;1101;65121;-83
2020/12/20 11:16:53;;;;;;;118.27;62.93;;;;;;;1.66;84.16;99986.96;124810;1101;65198;-83